Airfield :
LOGIN :

Register | Disclaimer

   EN    FR    IT 

 










Legend :    VFR   Marginal VFR   IFR   Intensive IFR   Very Intensive IFR
Visi :
Ceiling :
>= 8 km
>= 3000ft
5 to 8 km
1000 to 3000 ft
1500m to 5 km
500 to 1000 ft
800 to 1500m
200 to 500 ft
< 800m
< 200 ft
Symbols :   Thunderstorms  Fog  Heavy snow  Heavy precipitations  Wind > 20 kt
SIGMETs :     Misc.  Thunderstorms  Icing  Turbulence  Mountain Waves  Volcanic Ashes







- Airport Elevation : 256 ft
- IATA code : CFR
- Download approach charts


LFRK - Caen

CURRENT METAR :
  • 190600Z AUTO 24005KT 9999 OVC038 07/06 Q1027 TEMPO 4000 RADZ BKN004

EXPIRED METARs :
  • 190530Z AUTO 22004KT 9999 OVC039 07/06 Q1027 TEMPO 4000 RADZ BKN004
  • 190500Z AUTO 23002KT 9999 OVC039 07/06 Q1027
  • 190430Z AUTO 00000KT 9999 OVC040 07/06 Q1027
  • 190400Z AUTO 23004KT 9999 OVC039 07/06 Q1026
  • 190330Z AUTO 23005KT 9999 OVC039 07/06 Q1026

TAF TAF LFRK
Valid from the 19 at 06:00 until the 19 at 15:00 UTC


190500Z 1906/1915 VRB05KT 9999 BKN025
TEMPO 1906/1910 4000 RADZ BKN004
PROB40
TEMPO 1912/1915 4000 SHRA BKN012
Met : +33 2 31 26 68 11
No reported NOTAMs for that airfield.



MET'MAP, your aeronautical weather chart ! - Copyright ORBIFLY December 2007 - Disclaimer

ORBIFLY MET'MAP TEAM :

Programming & Development : Alexandra Zaïnal
Concept & Development : Baudouin d'Aumeries
Co-Development & Prog : Marc-Olivier Méhu
Technical & hardware support : Manuel Goepfert

Contact : metmap@orbifly.com




SOURCES & CREDITS :

   NOAA